createdAt,value
2018-09-11T00:01:22.291Z,5.12
2018-09-11T00:04:34.367Z,6.28
2018-09-11T00:07:45.643Z,5.12
2018-09-11T00:10:56.877Z,5.90
2018-09-11T00:14:08.320Z,4.55
2018-09-11T00:17:19.362Z,4.53
2018-09-11T00:20:30.610Z,4.65
2018-09-11T00:23:42.692Z,3.72
2018-09-11T00:26:54.373Z,5.08
2018-09-11T00:30:07.045Z,3.90
2018-09-11T00:33:18.948Z,3.80
2018-09-11T00:36:30.634Z,3.25
2018-09-11T00:39:42.458Z,5.58
2018-09-11T00:42:53.778Z,5.35
2018-09-11T00:46:06.078Z,6.03
2018-09-11T00:49:17.646Z,4.15
2018-09-11T00:52:28.704Z,4.72
2018-09-11T00:55:39.883Z,6.55
2018-09-11T00:58:51.810Z,6.90
2018-09-11T01:02:03.650Z,6.83
2018-09-11T01:05:14.995Z,4.22
2018-09-11T01:08:26.598Z,5.10
2018-09-11T01:11:37.928Z,4.20
2018-09-11T01:14:49.680Z,4.92
2018-09-11T01:18:01.252Z,5.28
2018-09-11T01:21:12.920Z,5.45
2018-09-11T01:24:24.971Z,5.58
2018-09-11T01:27:36.951Z,6.05
2018-09-11T01:30:48.078Z,4.58
2018-09-11T01:33:59.431Z,4.78
2018-09-11T01:37:11.600Z,3.72
2018-09-11T01:40:23.197Z,3.75
2018-09-11T01:43:34.278Z,4.58
2018-09-11T01:46:45.664Z,3.60
2018-09-11T01:49:57.477Z,6.28
2018-09-11T01:53:09.146Z,4.10
2018-09-11T01:56:21.640Z,4.22
2018-09-11T01:59:33.861Z,5.47
2018-09-11T02:02:46.258Z,4.75
2018-09-11T02:05:57.767Z,5.50
2018-09-11T02:09:11.799Z,3.52
2018-09-11T02:12:24.090Z,4.65
2018-09-11T02:15:35.620Z,8.70
2018-09-11T02:18:47.371Z,5.35
2018-09-11T02:21:59.095Z,6.62
2018-09-11T02:25:10.803Z,5.42
2018-09-11T02:28:22.457Z,5.65
2018-09-11T02:31:34.490Z,5.17
2018-09-11T02:34:45.743Z,6.08
2018-09-11T02:37:57.531Z,6.12
2018-09-11T02:41:09.231Z,4.87
2018-09-11T02:44:21.780Z,5.00
2018-09-11T02:47:33.129Z,4.10
2018-09-11T02:50:44.907Z,5.42
2018-09-11T02:53:56.436Z,4.85
2018-09-11T02:57:08.144Z,5.05
2018-09-11T03:00:19.875Z,8.45
2018-09-11T03:03:31.298Z,5.15
2018-09-11T03:06:43.308Z,6.25
2018-09-11T03:09:54.853Z,6.80
2018-09-11T03:13:07.353Z,5.62
2018-09-11T03:16:18.946Z,5.37
2018-09-11T03:19:30.107Z,5.65
2018-09-11T03:22:41.152Z,6.22
2018-09-11T03:25:52.483Z,6.12
2018-09-11T03:29:03.746Z,5.60
2018-09-11T03:32:15.223Z,4.83
2018-09-11T03:35:26.481Z,5.35
2018-09-11T03:38:37.965Z,7.85
2018-09-11T03:41:49.605Z,5.55
2018-09-11T03:45:01.590Z,6.45
2018-09-11T03:48:12.807Z,5.20
2018-09-11T03:51:24.807Z,6.47
2018-09-11T03:54:35.918Z,6.60
2018-09-11T03:57:47.171Z,5.55
2018-09-11T04:00:58.816Z,6.45
2018-09-11T04:04:10.678Z,6.35
2018-09-11T04:07:22.629Z,5.20
2018-09-11T04:10:33.793Z,4.75
2018-09-11T04:13:45.591Z,5.62
2018-09-11T04:16:57.352Z,6.50
2018-09-11T04:20:09.082Z,5.08
2018-09-11T04:23:20.145Z,7.08
2018-09-11T04:26:31.690Z,5.87
2018-09-11T04:29:43.710Z,4.97
2018-09-11T04:32:54.842Z,6.22
2018-09-11T04:36:06.232Z,6.15
2018-09-11T04:39:18.156Z,5.55
2018-09-11T04:42:29.580Z,6.60
2018-09-11T04:45:41.367Z,4.95
2018-09-11T04:48:52.402Z,5.00
2018-09-11T04:52:04.235Z,5.97
2018-09-11T04:55:15.356Z,6.42
2018-09-11T04:58:27.090Z,6.83
2018-09-11T05:01:39.277Z,6.62
2018-09-11T05:04:50.512Z,5.25
2018-09-11T05:08:01.787Z,5.75
2018-09-11T05:11:13.210Z,6.12
2018-09-11T05:14:25.325Z,5.62
2018-09-11T05:17:37.173Z,5.37
2018-09-11T05:20:48.491Z,7.92
2018-09-11T05:23:59.659Z,6.15
2018-09-11T05:27:11.708Z,6.65
2018-09-11T05:30:23.173Z,7.47
2018-09-11T05:33:34.996Z,7.50
2018-09-11T05:36:46.983Z,5.45
2018-09-11T05:39:58.323Z,8.05
2018-09-11T05:43:09.480Z,6.85
2018-09-11T05:46:21.269Z,5.90
2018-09-11T05:49:32.310Z,7.35
2018-09-11T05:52:43.553Z,7.55
2018-09-11T05:55:54.716Z,12.58
2018-09-11T05:59:06.344Z,8.48
2018-09-11T06:02:18.476Z,8.38
2018-09-11T06:05:29.639Z,8.90
2018-09-11T06:08:41.420Z,7.95
2018-09-11T06:11:53.261Z,10.70
2018-09-11T06:15:05.243Z,11.05
2018-09-11T06:18:16.944Z,9.38
2018-09-11T06:21:28.097Z,8.93
2018-09-11T06:24:39.569Z,8.78
2018-09-11T06:27:50.803Z,8.55
2018-09-11T06:31:02.527Z,7.17
2018-09-11T06:34:13.806Z,7.03
2018-09-11T06:37:25.011Z,6.25
2018-09-11T06:40:36.198Z,5.30
2018-09-11T06:43:47.229Z,5.37
2018-09-11T06:46:59.677Z,5.80
2018-09-11T06:50:11.087Z,6.37
2018-09-11T06:53:22.682Z,6.47
2018-09-11T06:56:34.392Z,5.97
2018-09-11T06:59:45.656Z,7.30
2018-09-11T07:02:57.250Z,7.47
2018-09-11T07:06:08.819Z,6.33
2018-09-11T07:09:19.985Z,5.83
2018-09-11T07:12:31.122Z,6.85
2018-09-11T07:15:42.353Z,5.65
2018-09-11T07:18:53.678Z,5.80
2018-09-11T07:22:05.560Z,5.78
2018-09-11T07:25:17.056Z,6.95
2018-09-11T07:28:28.115Z,5.20
2018-09-11T07:31:40.079Z,5.92
2018-09-11T07:34:51.241Z,5.72
2018-09-11T07:38:02.713Z,7.78
2018-09-11T07:41:13.843Z,4.83
2018-09-11T07:44:25.296Z,5.08
2018-09-11T07:47:37.548Z,5.10
2018-09-11T07:50:49.338Z,4.50
2018-09-11T07:54:00.566Z,5.20
2018-09-11T07:57:11.689Z,4.75
2018-09-11T08:00:22.941Z,4.58
2018-09-11T08:03:35.377Z,4.83
2018-09-11T08:06:47.358Z,3.45
2018-09-11T08:09:58.607Z,5.67
2018-09-11T08:13:09.895Z,3.33
2018-09-11T08:16:21.306Z,4.03
2018-09-11T08:19:33.700Z,4.15
2018-09-11T08:22:44.911Z,2.67
2018-09-11T08:25:56.739Z,4.40
2018-09-11T08:29:07.878Z,3.58
2018-09-11T08:32:19.059Z,3.80
2018-09-11T08:35:30.357Z,4.55
2018-09-11T08:38:42.335Z,3.27
2018-09-11T08:41:54.117Z,3.95
2018-09-11T08:45:06.322Z,4.72
2018-09-11T08:48:17.593Z,5.90
2018-09-11T08:51:28.692Z,4.33
2018-09-11T08:54:39.737Z,4.25
2018-09-11T08:57:50.883Z,4.67
2018-09-11T09:01:02.626Z,3.35
2018-09-11T09:04:14.123Z,4.15
2018-09-11T09:07:25.939Z,3.27
2018-09-11T09:10:36.955Z,3.55
2018-09-11T09:13:47.988Z,5.72
2018-09-11T09:16:59.152Z,3.77
2018-09-11T09:20:10.923Z,3.75
2018-09-11T09:23:22.423Z,7.03
2018-09-11T09:26:33.758Z,5.40
2018-09-11T09:29:45.323Z,5.40
2018-09-11T09:32:56.713Z,4.90
2018-09-11T09:36:08.463Z,3.90
2018-09-11T09:39:19.329Z,4.33
2018-09-11T09:42:30.411Z,3.47
2018-09-11T09:45:41.943Z,5.37
2018-09-11T09:48:52.992Z,3.57
2018-09-11T09:52:04.992Z,3.77
2018-09-11T09:55:16.615Z,3.90
2018-09-11T09:58:28.270Z,4.03
2018-09-11T10:01:44.941Z,6.60
2018-09-11T10:04:56.221Z,3.73
2018-09-11T10:08:07.336Z,3.40
2018-09-11T10:11:18.424Z,3.63
2018-09-11T10:14:29.933Z,2.73
2018-09-11T10:17:41.018Z,3.20
2018-09-11T10:20:52.201Z,3.27
2018-09-11T10:24:03.175Z,3.53
2018-09-11T10:27:14.802Z,4.10
2018-09-11T10:30:26.561Z,3.50
2018-09-11T10:33:37.476Z,3.43
2018-09-11T10:36:48.996Z,4.60
2018-09-11T10:40:00.027Z,4.63
2018-09-11T10:43:11.603Z,3.53
2018-09-11T10:46:22.937Z,4.57
2018-09-11T10:49:33.982Z,3.77
2018-09-11T10:52:45.300Z,2.90
2018-09-11T10:55:56.288Z,3.27
2018-09-11T10:59:07.826Z,3.30
2018-09-11T11:02:19.306Z,4.50
2018-09-11T11:05:30.835Z,4.07
2018-09-11T11:08:42.348Z,3.13
2018-09-11T11:11:53.742Z,4.30
2018-09-11T11:15:05.493Z,2.00
2018-09-11T11:18:17.162Z,3.60
2018-09-11T11:21:27.877Z,3.53
2018-09-11T11:24:39.610Z,3.27
2018-09-11T11:27:51.159Z,3.03
2018-09-11T11:31:02.795Z,3.90
2018-09-11T11:34:13.812Z,4.07
2018-09-11T11:37:25.374Z,5.07
2018-09-11T11:40:36.972Z,3.37
2018-09-11T11:43:48.050Z,4.37
2018-09-11T11:46:59.590Z,4.73
2018-09-11T11:50:11.229Z,3.50
2018-09-11T11:53:22.813Z,4.50
2018-09-11T11:56:34.213Z,4.50
2018-09-11T11:59:44.973Z,3.47
2018-09-11T12:02:55.827Z,2.50
2018-09-11T12:06:07.087Z,3.90
2018-09-11T12:09:18.123Z,3.60
2018-09-11T12:12:29.647Z,3.77
2018-09-11T12:15:41.113Z,3.20
2018-09-11T12:18:52.551Z,2.90
2018-09-11T12:22:03.848Z,3.37
2018-09-11T12:25:14.732Z,3.13
2018-09-11T12:28:25.835Z,5.40
2018-09-11T12:31:36.788Z,3.30
2018-09-11T12:34:47.847Z,4.97
2018-09-11T12:37:58.646Z,3.57
2018-09-11T12:41:09.963Z,3.13
2018-09-11T12:44:21.067Z,3.50
2018-09-11T12:47:32.592Z,3.97
2018-09-11T12:50:43.588Z,3.20
2018-09-11T12:53:54.409Z,2.60
2018-09-11T12:57:05.731Z,3.80
2018-09-11T13:00:16.523Z,3.20
2018-09-11T13:03:27.909Z,3.03
2018-09-11T13:06:39.600Z,3.07
2018-09-11T13:09:50.536Z,3.20
2018-09-11T13:13:01.717Z,3.57
2018-09-11T13:16:13.248Z,2.70
2018-09-11T13:19:24.335Z,3.20
2018-09-11T13:22:36.169Z,4.00
2018-09-11T13:25:47.573Z,2.97
2018-09-11T13:28:58.557Z,2.40
2018-09-11T13:32:10.098Z,3.00
2018-09-11T13:35:20.879Z,3.63
2018-09-11T13:38:31.798Z,2.30
2018-09-11T13:41:43.271Z,3.33
2018-09-11T13:44:54.857Z,3.17
2018-09-11T13:48:06.238Z,3.13
2018-09-11T13:51:17.059Z,3.37
2018-09-11T13:54:28.543Z,2.67
2018-09-11T13:57:39.501Z,2.97
2018-09-11T14:00:50.761Z,3.33
2018-09-11T14:04:01.733Z,4.57
2018-09-11T14:07:12.772Z,2.57
2018-09-11T14:10:23.659Z,3.03
2018-09-11T14:13:34.593Z,2.90
2018-09-11T14:16:45.575Z,3.20
2018-09-11T14:19:57.043Z,3.17
2018-09-11T14:23:08.612Z,2.30
2018-09-11T14:26:19.618Z,3.30
2018-09-11T14:29:30.723Z,4.07
2018-09-11T14:32:41.738Z,2.90
2018-09-11T14:35:53.105Z,3.30
2018-09-11T14:39:05.063Z,4.50
2018-09-11T14:42:15.811Z,3.33
2018-09-11T14:45:26.844Z,3.60
2018-09-11T14:48:38.232Z,3.27
2018-09-11T14:51:49.632Z,2.77
2018-09-11T14:55:00.372Z,3.20
2018-09-11T14:58:11.964Z,3.23
2018-09-11T15:01:23.247Z,3.73
2018-09-11T15:04:34.187Z,3.13
2018-09-11T15:07:45.652Z,2.57
2018-09-11T15:10:57.217Z,3.50
2018-09-11T15:14:08.570Z,3.37
2018-09-11T15:17:19.744Z,3.20
2018-09-11T15:20:30.608Z,2.60
2018-09-11T15:23:41.630Z,3.70
2018-09-11T15:26:53.059Z,3.07
2018-09-11T15:30:04.468Z,2.70
2018-09-11T15:33:15.539Z,2.43
2018-09-11T15:36:26.503Z,4.00
2018-09-11T15:39:38.200Z,3.83
2018-09-11T15:42:49.709Z,3.20
2018-09-11T15:46:00.693Z,3.07
2018-09-11T15:49:11.836Z,3.17
2018-09-11T15:52:22.980Z,4.17
2018-09-11T15:55:34.754Z,3.50
2018-09-11T15:58:46.021Z,3.70
2018-09-11T16:01:57.073Z,4.17
2018-09-11T16:05:08.303Z,3.77
2018-09-11T16:08:19.813Z,4.30
2018-09-11T16:11:30.717Z,3.30
2018-09-11T16:14:42.254Z,2.63
2018-09-11T16:17:53.633Z,2.27
2018-09-11T16:21:05.129Z,2.90
2018-09-11T16:24:16.220Z,4.00
2018-09-11T16:27:27.151Z,2.70
2018-09-11T16:30:38.657Z,2.80
2018-09-11T16:33:50.036Z,2.70
2018-09-11T16:37:01.122Z,3.60
2018-09-11T16:40:12.379Z,3.67
2018-09-11T16:43:23.421Z,2.90
2018-09-11T16:46:34.535Z,3.47
2018-09-11T16:49:46.634Z,3.20
2018-09-11T16:52:57.557Z,3.20
2018-09-11T16:56:09.164Z,2.63
2018-09-11T16:59:20.855Z,3.20
2018-09-11T17:02:32.293Z,3.10
2018-09-11T17:05:43.240Z,3.10
2018-09-11T17:08:55.182Z,3.40
2018-09-11T17:12:06.841Z,3.23
2018-09-11T17:15:18.003Z,4.00
2018-09-11T17:18:29.264Z,3.23
2018-09-11T17:21:40.545Z,3.27
2018-09-11T17:24:51.713Z,3.03
2018-09-11T17:28:02.558Z,4.03
2018-09-11T17:31:13.452Z,3.70
2018-09-11T17:34:24.645Z,2.40
2018-09-11T17:37:35.460Z,3.70
2018-09-11T17:40:46.298Z,2.87
2018-09-11T17:43:57.206Z,3.83
2018-09-11T17:47:08.409Z,3.93
2018-09-11T17:50:19.206Z,3.47
2018-09-11T17:53:30.779Z,2.90
2018-09-11T17:56:42.343Z,3.17
2018-09-11T17:59:53.372Z,2.47
2018-09-11T18:03:06.713Z,3.50
2018-09-11T18:06:17.551Z,2.77
2018-09-11T18:09:29.188Z,2.60
2018-09-11T18:12:40.030Z,2.50
2018-09-11T18:15:51.466Z,4.12
2018-09-11T18:19:03.215Z,2.50
2018-09-11T18:22:14.286Z,3.47
2018-09-11T18:25:25.451Z,3.70
2018-09-11T18:28:37.036Z,3.10
2018-09-11T18:31:49.046Z,2.47
2018-09-11T18:35:00.313Z,3.33
2018-09-11T18:38:11.781Z,4.08
2018-09-11T18:41:22.895Z,3.42
2018-09-11T18:44:34.131Z,4.53
2018-09-11T18:47:46.019Z,3.67
2018-09-11T18:50:57.811Z,4.25
2018-09-11T18:54:08.979Z,3.45
2018-09-11T18:57:20.797Z,4.20
2018-09-11T19:00:32.712Z,3.62
2018-09-11T19:03:43.986Z,5.78
2018-09-11T19:06:55.700Z,3.98
2018-09-11T19:10:07.938Z,3.50
2018-09-11T19:13:19.175Z,4.90
2018-09-11T19:16:30.382Z,4.30
2018-09-11T19:19:41.429Z,3.25
2018-09-11T19:22:52.691Z,2.80
2018-09-11T19:26:03.722Z,3.08
2018-09-11T19:29:15.029Z,2.90
2018-09-11T19:32:26.039Z,3.55
2018-09-11T19:35:37.248Z,3.60
2018-09-11T19:38:48.769Z,2.85
2018-09-11T19:42:00.445Z,3.12
2018-09-11T19:45:11.564Z,3.22
2018-09-11T19:48:23.009Z,4.58
2018-09-11T19:51:34.375Z,3.55
2018-09-11T19:54:46.376Z,3.30
2018-09-11T19:57:58.395Z,3.37
2018-09-11T20:01:10.315Z,3.27
2018-09-11T20:04:22.068Z,3.83
2018-09-11T20:07:33.093Z,2.95
2018-09-11T20:10:44.505Z,2.85
2018-09-11T20:13:55.563Z,2.80
2018-09-11T20:17:06.991Z,3.52
2018-09-11T20:20:18.687Z,5.35
2018-09-11T20:23:30.349Z,3.40
2018-09-11T20:26:41.573Z,3.65
2018-09-11T20:29:53.571Z,2.90
2018-09-11T20:33:05.475Z,2.65
2018-09-11T20:36:16.864Z,2.75
2018-09-11T20:39:27.931Z,2.70
2018-09-11T20:42:39.722Z,3.02
2018-09-11T20:45:50.945Z,2.70
2018-09-11T20:49:02.036Z,4.55
2018-09-11T20:52:13.151Z,3.20
2018-09-11T20:55:25.776Z,2.83
2018-09-11T20:58:38.311Z,3.67
2018-09-11T21:01:49.629Z,3.12
2018-09-11T21:05:00.957Z,3.10
2018-09-11T21:08:12.820Z,2.77
2018-09-11T21:11:24.180Z,3.65
2018-09-11T21:14:36.036Z,2.98
2018-09-11T21:17:47.246Z,2.95
2018-09-11T21:20:58.349Z,2.92
2018-09-11T21:24:10.039Z,3.25
2018-09-11T21:27:21.175Z,2.87
2018-09-11T21:30:32.591Z,4.70
2018-09-11T21:33:44.526Z,3.37
2018-09-11T21:36:56.431Z,3.35
2018-09-11T21:40:08.819Z,5.12
2018-09-11T21:43:20.574Z,2.70
2018-09-11T21:46:32.849Z,3.42
2018-09-11T21:49:44.679Z,3.10
2018-09-11T21:52:55.725Z,4.12
2018-09-11T21:56:07.315Z,3.37
2018-09-11T21:59:19.104Z,4.25
2018-09-11T22:02:31.134Z,3.35
2018-09-11T22:05:42.163Z,3.72
2018-09-11T22:08:53.676Z,3.60
2018-09-11T22:12:05.810Z,4.28
2018-09-11T22:15:17.091Z,4.92
2018-09-11T22:18:28.979Z,2.72
2018-09-11T22:21:40.799Z,3.60
2018-09-11T22:24:52.671Z,2.50
2018-09-11T22:28:04.089Z,3.35
2018-09-11T22:31:15.676Z,2.65
2018-09-11T22:34:27.309Z,3.83
2018-09-11T22:37:38.788Z,3.00
2018-09-11T22:40:50.395Z,4.08
2018-09-11T22:44:02.223Z,3.00
2018-09-11T22:47:13.422Z,3.37
2018-09-11T22:50:24.398Z,2.87
2018-09-11T22:53:36.444Z,3.22
2018-09-11T22:56:48.354Z,4.85
2018-09-11T22:59:59.708Z,2.77
2018-09-11T23:03:11.579Z,2.65
2018-09-11T23:06:22.760Z,3.58
2018-09-11T23:09:34.570Z,4.40
2018-09-11T23:12:46.479Z,3.05
2018-09-11T23:15:58.024Z,3.40
2018-09-11T23:19:09.135Z,3.87
2018-09-11T23:22:20.327Z,3.70
2018-09-11T23:25:55.486Z,3.83
2018-09-11T23:29:16.687Z,2.98
2018-09-11T23:32:35.176Z,3.25
2018-09-11T23:35:47.432Z,3.52
2018-09-11T23:39:05.537Z,2.52
2018-09-11T23:42:17.577Z,3.40
2018-09-11T23:45:29.240Z,3.67
2018-09-11T23:48:40.323Z,3.27
2018-09-11T23:51:51.558Z,3.22
2018-09-11T23:55:03.025Z,3.05
2018-09-11T23:58:14.025Z,2.87
